Hovedside
METAR-TAF:

METAR-TAF

Lufthavner :

Volgograd, Russland

breddegrad: 48-47N, lengdegrad: 044-22E, høyde over havet: 145 m

Gjeldene værobservasjon

Denne rapporten ble laget for 37 minutter siden, klokken 19:00 UTC
Vind 16 kt fra Øst
Temperatur -15°C
Luftfuktighet 78%
Trykk 1016 hPa
Sikt 10 km eller mer
Brutte skyer i en høyde av 700 ft

METAR: URWW 181900Z 09008MPS 9999 BKN007 M15/M18 Q1016 R06/120060 TEMPO 1000 BR OVC002 RMK OBST OBSC

Tid: 22:37 (19:37 UTC)

Varsel

Denne rapporten ble laget for 2 timer og 39 minutter siden, klokken 16:58 UTC
Varsel gyldig fra 18. klokken 18 UTC til 19. klokken 03 UTC
Vind 17 kt fra Øst-nordøst med vindkast opp mot 29 kt
Sikt: 3100 m
Overskyet i en høyde av 1100 ft
dis
Midlertidig
fra 18. klokken 18 UTC til 19. klokken 03 UTC
Vind 14 kt fra Øst med vindkast opp mot 23 kt
Sikt: 0500 m
Overskyet i en høyde av 300 ft
kornsnø, underkjølt tåke

TAF: URWW 181658Z 1818/1903 07009G15MPS 3100 BR OVC011 TEMPO 1818/1903 10007G12MPS 0500 SG FZFG OVC003

Værobservasjoner og værvarsel for over 4000 flyplasser (METAR- og TAF-rapporter).

Tilgjengelige stasjoner er representert av de røde og gule prikkene på kartet.

Hold musepekeren over prikken for å se navnet på stasjonen.

Klikk så for å se værobservasjoner og -varsler.

For å forandre kartet kan du klikke på den grønne knappen med svart kryss for å zoome inn, på den grønne knappen med strek for å zoome ut, eller på de grønne pilene for å se tilstøtende kart.


METAR-TAF: